Terminal Aerodrome Forecast
Issued by NWS

Home | Current Version | Previous Version | Text Only | Print | Product List | Glossary On
Versions: 1 2 3 4 5 6 7 8 9 10 11 12 13 14 15
899
FTUS43 KMQT 231724
TAFSAW
TAF
KSAW 231724Z 2318/2418 17015G23KT P6SM BKN040 OVC070
     FM232300 18012KT P6SM VCSH OVC040
     FM240200 18008KT 4SM -FZRA SCT015 OVC025
     FM240300 20008KT 2SM -FZRA OVC008
     FM240600 20008KT 2SM -FZRA OVC003
     FM241000 VRB05KT 3SM BR VCSH OVC003
     FM241200 33005KT 2SM BR VCSH OVC003=

USA.gov is the U.S. government's official web portal to all federal, state and local government web resources and services.